sensor_id;sensor_type;location;lat;lon;timestamp;pressure;altitude;pressure_sealevel;temperature;humidity
28428;BME280;15662;49.128;8.520;2022-08-21T00:02:23;100494.13;;;23.85;39.90
28428;BME280;15662;49.128;8.520;2022-08-21T00:04:53;100501.63;;;23.81;40.05
28428;BME280;15662;49.128;8.520;2022-08-21T00:07:25;100490.44;;;23.75;39.86
28428;BME280;15662;49.128;8.520;2022-08-21T00:09:53;100487.22;;;23.70;39.90
28428;BME280;15662;49.128;8.520;2022-08-21T00:12:22;100501.97;;;23.77;40.03
28428;BME280;15662;49.128;8.520;2022-08-21T00:14:51;100494.09;;;23.74;40.02
28428;BME280;15662;49.128;8.520;2022-08-21T00:17:26;100497.06;;;23.71;40.25
28428;BME280;15662;49.128;8.520;2022-08-21T00:19:55;100502.69;;;23.67;40.45
28428;BME280;15662;49.128;8.520;2022-08-21T00:22:24;100492.34;;;23.61;40.48
28428;BME280;15662;49.128;8.520;2022-08-21T00:24:52;100489.25;;;23.55;40.63
28428;BME280;15662;49.128;8.520;2022-08-21T00:27:21;100491.31;;;23.51;40.68
28428;BME280;15662;49.128;8.520;2022-08-21T00:29:50;100477.53;;;23.43;40.95
28428;BME280;15662;49.128;8.520;2022-08-21T00:32:25;100479.38;;;23.42;40.59
28428;BME280;15662;49.128;8.520;2022-08-21T00:34:54;100468.63;;;23.30;40.97
28428;BME280;15662;49.128;8.520;2022-08-21T00:37:22;100466.69;;;23.32;40.88
28428;BME280;15662;49.128;8.520;2022-08-21T00:39:50;100484.28;;;23.37;40.94
28428;BME280;15662;49.128;8.520;2022-08-21T00:42:19;100473.59;;;23.36;40.93
28428;BME280;15662;49.128;8.520;2022-08-21T00:44:51;100482.56;;;23.36;40.76
28428;BME280;15662;49.128;8.520;2022-08-21T00:47:19;100470.03;;;23.35;40.71
28428;BME280;15662;49.128;8.520;2022-08-21T00:49:48;100476.28;;;23.36;40.91
28428;BME280;15662;49.128;8.520;2022-08-21T00:52:24;100466.34;;;23.36;40.82
28428;BME280;15662;49.128;8.520;2022-08-21T00:54:57;100463.13;;;23.31;40.92
28428;BME280;15662;49.128;8.520;2022-08-21T00:57:40;100465.56;;;23.34;40.55
28428;BME280;15662;49.128;8.520;2022-08-21T01:00:27;100475.19;;;23.38;40.73
28428;BME280;15662;49.128;8.520;2022-08-21T01:02:59;100473.31;;;23.39;40.78
28428;BME280;15662;49.128;8.520;2022-08-21T01:05:35;100477.78;;;23.40;41.03
28428;BME280;15662;49.128;8.520;2022-08-21T01:08:05;100480.34;;;23.41;40.94
28428;BME280;15662;49.128;8.520;2022-08-21T01:10:35;100477.88;;;23.38;40.76
28428;BME280;15662;49.128;8.520;2022-08-21T01:13:08;100475.53;;;23.34;40.95
28428;BME280;15662;49.128;8.520;2022-08-21T01:15:44;100477.63;;;23.30;41.20
28428;BME280;15662;49.128;8.520;2022-08-21T01:18:16;100483.75;;;23.21;41.53
28428;BME280;15662;49.128;8.520;2022-08-21T01:21:13;100479.50;;;22.82;41.31
28428;BME280;15662;49.128;8.520;2022-08-21T01:23:46;100474.38;;;22.90;41.66
28428;BME280;15662;49.128;8.520;2022-08-21T01:26:22;100477.22;;;22.88;41.63
28428;BME280;15662;49.128;8.520;2022-08-21T01:29:11;100476.78;;;22.82;41.75
28428;BME280;15662;49.128;8.520;2022-08-21T01:31:43;100474.78;;;22.73;41.90
28428;BME280;15662;49.128;8.520;2022-08-21T01:34:11;100471.69;;;22.66;42.17
28428;BME280;15662;49.128;8.520;2022-08-21T01:36:41;100472.75;;;22.63;42.21
28428;BME280;15662;49.128;8.520;2022-08-21T01:39:10;100470.50;;;22.57;42.42
28428;BME280;15662;49.128;8.520;2022-08-21T01:41:39;100482.50;;;22.53;42.53
28428;BME280;15662;49.128;8.520;2022-08-21T01:44:08;100470.31;;;22.48;42.48
28428;BME280;15662;49.128;8.520;2022-08-21T01:46:39;100461.91;;;22.39;42.70
28428;BME280;15662;49.128;8.520;2022-08-21T01:49:07;100470.47;;;22.33;42.97
28428;BME280;15662;49.128;8.520;2022-08-21T01:51:36;100467.13;;;22.30;43.05
28428;BME280;15662;49.128;8.520;2022-08-21T01:54:06;100467.25;;;22.28;43.09
28428;BME280;15662;49.128;8.520;2022-08-21T01:56:45;100451.06;;;22.15;43.04
28428;BME280;15662;49.128;8.520;2022-08-21T01:59:16;100468.97;;;22.17;43.35
28428;BME280;15662;49.128;8.520;2022-08-21T02:01:44;100469.75;;;22.19;43.41
28428;BME280;15662;49.128;8.520;2022-08-21T02:04:12;100472.34;;;22.20;43.35
28428;BME280;15662;49.128;8.520;2022-08-21T02:06:41;100458.63;;;22.23;43.54
28428;BME280;15662;49.128;8.520;2022-08-21T02:09:11;100471.88;;;22.26;43.55
28428;BME280;15662;49.128;8.520;2022-08-21T02:11:42;100459.06;;;22.17;43.71
28428;BME280;15662;49.128;8.520;2022-08-21T02:14:14;100463.72;;;22.15;43.80
28428;BME280;15662;49.128;8.520;2022-08-21T02:16:59;100456.56;;;22.01;43.97
28428;BME280;15662;49.128;8.520;2022-08-21T02:19:32;100454.09;;;21.98;44.03
28428;BME280;15662;49.128;8.520;2022-08-21T02:22:10;100456.16;;;21.95;43.97
28428;BME280;15662;49.128;8.520;2022-08-21T02:24:39;100456.59;;;21.88;44.30
28428;BME280;15662;49.128;8.520;2022-08-21T02:27:25;100443.09;;;21.76;44.09
28428;BME280;15662;49.128;8.520;2022-08-21T02:29:57;100448.19;;;21.80;44.33
28428;BME280;15662;49.128;8.520;2022-08-21T02:32:26;100450.22;;;21.77;44.63
28428;BME280;15662;49.128;8.520;2022-08-21T02:34:54;100442.56;;;21.71;44.76
28428;BME280;15662;49.128;8.520;2022-08-21T02:37:24;100450.66;;;21.71;44.65
28428;BME280;15662;49.128;8.520;2022-08-21T02:39:53;100447.56;;;21.64;44.67
28428;BME280;15662;49.128;8.520;2022-08-21T02:42:21;100447.00;;;21.59;45.00
28428;BME280;15662;49.128;8.520;2022-08-21T02:44:50;100457.34;;;21.52;45.01
28428;BME280;15662;49.128;8.520;2022-08-21T02:47:18;100452.50;;;21.45;45.17
28428;BME280;15662;49.128;8.520;2022-08-21T02:49:47;100438.06;;;21.33;45.12
28428;BME280;15662;49.128;8.520;2022-08-21T02:52:16;100448.72;;;21.34;45.16
28428;BME280;15662;49.128;8.520;2022-08-21T02:54:45;100452.59;;;21.30;45.46
28428;BME280;15662;49.128;8.520;2022-08-21T02:57:15;100451.16;;;21.25;45.57
28428;BME280;15662;49.128;8.520;2022-08-21T02:59:44;100450.38;;;21.23;45.51
28428;BME280;15662;49.128;8.520;2022-08-21T03:02:12;100458.59;;;21.21;45.76
28428;BME280;15662;49.128;8.520;2022-08-21T03:04:41;100454.28;;;21.19;45.56
28428;BME280;15662;49.128;8.520;2022-08-21T03:07:16;100450.16;;;21.13;45.80
28428;BME280;15662;49.128;8.520;2022-08-21T03:09:45;100453.94;;;21.10;46.00
28428;BME280;15662;49.128;8.520;2022-08-21T03:12:24;100453.69;;;21.01;45.89
28428;BME280;15662;49.128;8.520;2022-08-21T03:14:56;100460.13;;;20.98;46.07
28428;BME280;15662;49.128;8.520;2022-08-21T03:17:27;100457.66;;;20.95;45.99
28428;BME280;15662;49.128;8.520;2022-08-21T03:19:57;100464.03;;;20.94;46.27
28428;BME280;15662;49.128;8.520;2022-08-21T03:22:26;100456.81;;;20.95;46.32
28428;BME280;15662;49.128;8.520;2022-08-21T03:24:58;100454.19;;;20.93;46.21
28428;BME280;15662;49.128;8.520;2022-08-21T03:27:28;100454.31;;;20.92;46.36
28428;BME280;15662;49.128;8.520;2022-08-21T03:29:58;100460.88;;;20.87;46.49
28428;BME280;15662;49.128;8.520;2022-08-21T03:32:27;100455.41;;;20.89;46.54
28428;BME280;15662;49.128;8.520;2022-08-21T03:34:55;100455.59;;;20.86;46.47
28428;BME280;15662;49.128;8.520;2022-08-21T03:37:24;100453.75;;;20.86;46.64
28428;BME280;15662;49.128;8.520;2022-08-21T03:39:52;100455.72;;;20.84;46.93
28428;BME280;15662;49.128;8.520;2022-08-21T03:42:21;100461.84;;;20.86;46.74
28428;BME280;15662;49.128;8.520;2022-08-21T03:44:49;100457.00;;;20.92;46.93
28428;BME280;15662;49.128;8.520;2022-08-21T03:47:18;100457.78;;;20.94;46.76
28428;BME280;15662;49.128;8.520;2022-08-21T03:49:46;100463.63;;;21.00;46.67
28428;BME280;15662;49.128;8.520;2022-08-21T03:52:14;100459.09;;;21.01;46.74
28428;BME280;15662;49.128;8.520;2022-08-21T03:54:44;100452.72;;;21.02;46.74
28428;BME280;15662;49.128;8.520;2022-08-21T03:57:13;100462.09;;;20.96;46.80
28428;BME280;15662;49.128;8.520;2022-08-21T03:59:41;100460.00;;;20.87;46.86
28428;BME280;15662;49.128;8.520;2022-08-21T04:02:16;100468.00;;;20.89;46.91
28428;BME280;15662;49.128;8.520;2022-08-21T04:04:47;100468.41;;;20.82;46.97
28428;BME280;15662;49.128;8.520;2022-08-21T04:07:16;100466.97;;;20.77;47.08
28428;BME280;15662;49.128;8.520;2022-08-21T04:09:45;100480.34;;;20.78;47.38
28428;BME280;15662;49.128;8.520;2022-08-21T04:12:14;100478.34;;;20.68;47.15
28428;BME280;15662;49.128;8.520;2022-08-21T04:14:42;100479.53;;;20.64;47.06
28428;BME280;15662;49.128;8.520;2022-08-21T04:17:11;100476.28;;;20.58;47.28
28428;BME280;15662;49.128;8.520;2022-08-21T04:19:40;100486.84;;;20.61;47.36
28428;BME280;15662;49.128;8.520;2022-08-21T04:22:08;100486.19;;;20.58;47.51
28428;BME280;15662;49.128;8.520;2022-08-21T04:24:37;100493.09;;;20.62;47.33
28428;BME280;15662;49.128;8.520;2022-08-21T04:27:06;100497.50;;;20.63;47.63
28428;BME280;15662;49.128;8.520;2022-08-21T04:29:34;100495.50;;;20.67;47.54
28428;BME280;15662;49.128;8.520;2022-08-21T04:32:07;100490.84;;;20.69;47.61
28428;BME280;15662;49.128;8.520;2022-08-21T04:34:36;100489.81;;;20.71;47.49
28428;BME280;15662;49.128;8.520;2022-08-21T04:37:06;100489.25;;;20.66;47.50
28428;BME280;15662;49.128;8.520;2022-08-21T04:39:34;100501.75;;;20.67;47.71
28428;BME280;15662;49.128;8.520;2022-08-21T04:42:03;100505.81;;;20.60;47.57
28428;BME280;15662;49.128;8.520;2022-08-21T04:44:36;100519.66;;;20.54;47.62
28428;BME280;15662;49.128;8.520;2022-08-21T04:47:05;100509.97;;;20.51;47.69
28428;BME280;15662;49.128;8.520;2022-08-21T04:49:33;100511.19;;;20.46;47.75
28428;BME280;15662;49.128;8.520;2022-08-21T04:52:05;100514.66;;;20.48;47.77
28428;BME280;15662;49.128;8.520;2022-08-21T04:54:33;100495.72;;;20.35;47.99
28428;BME280;15662;49.128;8.520;2022-08-21T04:57:07;100515.72;;;20.45;47.90
28428;BME280;15662;49.128;8.520;2022-08-21T04:59:48;100521.03;;;20.47;48.05
28428;BME280;15662;49.128;8.520;2022-08-21T05:02:19;100523.97;;;20.42;47.95
28428;BME280;15662;49.128;8.520;2022-08-21T05:04:52;100520.25;;;20.45;47.96
28428;BME280;15662;49.128;8.520;2022-08-21T05:07:26;100520.91;;;20.48;48.12
28428;BME280;15662;49.128;8.520;2022-08-21T05:10:10;100516.88;;;20.41;48.15
28428;BME280;15662;49.128;8.520;2022-08-21T05:12:42;100525.25;;;20.51;48.46
28428;BME280;15662;49.128;8.520;2022-08-21T05:15:12;100520.06;;;20.48;48.38
28428;BME280;15662;49.128;8.520;2022-08-21T05:17:41;100524.97;;;20.55;48.56
28428;BME280;15662;49.128;8.520;2022-08-21T05:20:12;100526.56;;;20.58;48.39
28428;BME280;15662;49.128;8.520;2022-08-21T05:22:42;100531.19;;;20.56;48.50
28428;BME280;15662;49.128;8.520;2022-08-21T05:25:11;100538.88;;;20.62;48.70
28428;BME280;15662;49.128;8.520;2022-08-21T05:27:39;100534.28;;;20.64;48.77
28428;BME280;15662;49.128;8.520;2022-08-21T05:30:11;100527.41;;;20.73;48.60
28428;BME280;15662;49.128;8.520;2022-08-21T05:32:39;100523.66;;;20.75;48.60
28428;BME280;15662;49.128;8.520;2022-08-21T05:35:08;100528.44;;;20.84;48.60
28428;BME280;15662;49.128;8.520;2022-08-21T05:37:57;100522.84;;;20.87;48.53
28428;BME280;15662;49.128;8.520;2022-08-21T05:40:46;100530.13;;;21.00;48.53
28428;BME280;15662;49.128;8.520;2022-08-21T05:43:30;100512.56;;;21.07;48.14
28428;BME280;15662;49.128;8.520;2022-08-21T05:46:00;100527.25;;;21.16;48.29
28428;BME280;15662;49.128;8.520;2022-08-21T05:48:28;100525.66;;;21.26;48.10
28428;BME280;15662;49.128;8.520;2022-08-21T05:51:07;100531.22;;;21.37;47.81
28428;BME280;15662;49.128;8.520;2022-08-21T05:53:37;100523.78;;;21.41;47.67
28428;BME280;15662;49.128;8.520;2022-08-21T05:56:06;100516.06;;;21.49;47.83
28428;BME280;15662;49.128;8.520;2022-08-21T05:58:35;100517.47;;;21.54;47.70
28428;BME280;15662;49.128;8.520;2022-08-21T06:01:04;100522.97;;;21.66;47.51
28428;BME280;15662;49.128;8.520;2022-08-21T06:03:37;100521.66;;;21.71;47.49
28428;BME280;15662;49.128;8.520;2022-08-21T06:06:05;100524.81;;;21.78;47.45
28428;BME280;15662;49.128;8.520;2022-08-21T06:08:34;100533.22;;;21.86;47.23
28428;BME280;15662;49.128;8.520;2022-08-21T06:11:05;100530.00;;;21.94;47.30
28428;BME280;15662;49.128;8.520;2022-08-21T06:13:36;100525.47;;;21.94;47.30
28428;BME280;15662;49.128;8.520;2022-08-21T06:16:12;100529.44;;;22.01;47.08
28428;BME280;15662;49.128;8.520;2022-08-21T06:18:44;100526.53;;;22.04;47.24
28428;BME280;15662;49.128;8.520;2022-08-21T06:21:13;100530.75;;;22.08;47.33
28428;BME280;15662;49.128;8.520;2022-08-21T06:23:43;100531.66;;;22.22;47.01
28428;BME280;15662;49.128;8.520;2022-08-21T06:26:13;100528.50;;;22.28;47.19
28428;BME280;15662;49.128;8.520;2022-08-21T06:28:42;100528.16;;;22.32;47.09
28428;BME280;15662;49.128;8.520;2022-08-21T06:31:20;100522.97;;;22.42;46.97
28428;BME280;15662;49.128;8.520;2022-08-21T06:33:50;100539.56;;;22.49;47.00
28428;BME280;15662;49.128;8.520;2022-08-21T06:36:19;100540.84;;;22.56;46.91
28428;BME280;15662;49.128;8.520;2022-08-21T06:38:51;100536.72;;;22.63;46.88
28428;BME280;15662;49.128;8.520;2022-08-21T06:41:23;100530.88;;;22.69;46.88
28428;BME280;15662;49.128;8.520;2022-08-21T06:43:55;100540.88;;;22.80;46.88
28428;BME280;15662;49.128;8.520;2022-08-21T06:46:27;100533.50;;;22.95;46.63
28428;BME280;15662;49.128;8.520;2022-08-21T06:48:58;100531.31;;;23.00;46.50
28428;BME280;15662;49.128;8.520;2022-08-21T06:51:29;100527.91;;;23.09;46.49
28428;BME280;15662;49.128;8.520;2022-08-21T06:53:58;100536.31;;;23.17;46.35
28428;BME280;15662;49.128;8.520;2022-08-21T06:56:26;100537.47;;;23.26;46.19
28428;BME280;15662;49.128;8.520;2022-08-21T06:58:55;100534.03;;;23.35;46.23
28428;BME280;15662;49.128;8.520;2022-08-21T07:01:25;100531.66;;;23.54;46.10
28428;BME280;15662;49.128;8.520;2022-08-21T07:03:55;100530.97;;;23.63;46.08
28428;BME280;15662;49.128;8.520;2022-08-21T07:06:24;100533.59;;;23.76;45.58
28428;BME280;15662;49.128;8.520;2022-08-21T07:08:53;100539.03;;;23.87;45.60
28428;BME280;15662;49.128;8.520;2022-08-21T07:11:25;100531.31;;;23.94;45.45
28428;BME280;15662;49.128;8.520;2022-08-21T07:13:54;100532.16;;;24.06;45.51
28428;BME280;15662;49.128;8.520;2022-08-21T07:16:24;100539.28;;;24.18;45.17
28428;BME280;15662;49.128;8.520;2022-08-21T07:18:52;100532.16;;;24.28;45.13
28428;BME280;15662;49.128;8.520;2022-08-21T07:21:20;100535.63;;;24.41;44.99
28428;BME280;15662;49.128;8.520;2022-08-21T07:23:54;100537.38;;;24.54;44.73
28428;BME280;15662;49.128;8.520;2022-08-21T07:26:25;100524.88;;;24.62;44.83
28428;BME280;15662;49.128;8.520;2022-08-21T07:28:55;100525.75;;;24.74;44.20
28428;BME280;15662;49.128;8.520;2022-08-21T07:31:25;100524.72;;;24.86;44.32
28428;BME280;15662;49.128;8.520;2022-08-21T07:33:54;100525.19;;;24.91;44.18
28428;BME280;15662;49.128;8.520;2022-08-21T07:36:22;100516.16;;;25.02;43.64
28428;BME280;15662;49.128;8.520;2022-08-21T07:38:52;100521.59;;;25.13;43.47
28428;BME280;15662;49.128;8.520;2022-08-21T07:41:24;100518.97;;;25.23;43.33
28428;BME280;15662;49.128;8.520;2022-08-21T07:43:53;100518.91;;;25.34;43.25
28428;BME280;15662;49.128;8.520;2022-08-21T07:46:22;100519.13;;;25.42;43.08
28428;BME280;15662;49.128;8.520;2022-08-21T07:48:51;100515.47;;;25.53;43.02
28428;BME280;15662;49.128;8.520;2022-08-21T07:51:25;100507.13;;;25.66;42.81
28428;BME280;15662;49.128;8.520;2022-08-21T07:53:57;100511.78;;;25.75;42.82
28428;BME280;15662;49.128;8.520;2022-08-21T07:56:29;100507.56;;;25.82;42.63
28428;BME280;15662;49.128;8.520;2022-08-21T07:58:58;100504.31;;;25.88;42.21
28428;BME280;15662;49.128;8.520;2022-08-21T08:01:26;100504.22;;;25.99;42.08
28428;BME280;15662;49.128;8.520;2022-08-21T08:03:55;100498.97;;;26.08;42.03
28428;BME280;15662;49.128;8.520;2022-08-21T08:06:24;100501.72;;;26.17;41.69
28428;BME280;15662;49.128;8.520;2022-08-21T08:08:53;100492.75;;;26.27;41.53
28428;BME280;15662;49.128;8.520;2022-08-21T08:11:23;100506.09;;;26.39;41.13
28428;BME280;15662;49.128;8.520;2022-08-21T08:13:52;100500.88;;;26.47;40.85
28428;BME280;15662;49.128;8.520;2022-08-21T08:16:20;100504.63;;;26.56;40.62
28428;BME280;15662;49.128;8.520;2022-08-21T08:18:49;100493.31;;;26.61;40.35
28428;BME280;15662;49.128;8.520;2022-08-21T08:21:18;100493.63;;;26.67;40.23
28428;BME280;15662;49.128;8.520;2022-08-21T08:23:50;100497.34;;;26.76;40.26
28428;BME280;15662;49.128;8.520;2022-08-21T08:26:19;100495.78;;;26.83;40.06
28428;BME280;15662;49.128;8.520;2022-08-21T08:28:47;100491.06;;;26.85;39.50
28428;BME280;15662;49.128;8.520;2022-08-21T08:31:16;100487.63;;;26.93;39.44
28428;BME280;15662;49.128;8.520;2022-08-21T08:33:44;100486.94;;;27.00;39.19
28428;BME280;15662;49.128;8.520;2022-08-21T08:36:18;100489.81;;;27.09;38.95
28428;BME280;15662;49.128;8.520;2022-08-21T08:38:47;100475.66;;;27.15;38.84
28428;BME280;15662;49.128;8.520;2022-08-21T08:41:20;100475.78;;;27.23;38.67
28428;BME280;15662;49.128;8.520;2022-08-21T08:44:04;100472.19;;;27.32;38.66
28428;BME280;15662;49.128;8.520;2022-08-21T08:46:54;100466.16;;;27.38;38.65
28428;BME280;15662;49.128;8.520;2022-08-21T08:52:37;100470.91;;;27.46;38.61
28428;BME280;15662;49.128;8.520;2022-08-21T08:55:15;100465.16;;;27.49;38.14
28428;BME280;15662;49.128;8.520;2022-08-21T08:57:47;100460.44;;;27.51;38.20
28428;BME280;15662;49.128;8.520;2022-08-21T09:00:21;100457.25;;;27.56;37.96
28428;BME280;15662;49.128;8.520;2022-08-21T09:02:57;100451.38;;;27.60;37.83
28428;BME280;15662;49.128;8.520;2022-08-21T09:05:57;100447.91;;;27.68;37.65
28428;BME280;15662;49.128;8.520;2022-08-21T09:20:33;100437.94;;;27.96;36.96
28428;BME280;15662;49.128;8.520;2022-08-21T09:23:29;100435.91;;;27.98;36.89
28428;BME280;15662;49.128;8.520;2022-08-21T09:26:12;100436.66;;;28.00;36.59
28428;BME280;15662;49.128;8.520;2022-08-21T09:28:41;100431.78;;;28.03;36.47
28428;BME280;15662;49.128;8.520;2022-08-21T09:31:32;100428.59;;;28.08;36.21
28428;BME280;15662;49.128;8.520;2022-08-21T09:34:11;100427.41;;;28.11;36.34
28428;BME280;15662;49.128;8.520;2022-08-21T09:36:49;100423.09;;;28.18;36.12
28428;BME280;15662;49.128;8.520;2022-08-21T09:39:38;100418.72;;;28.25;35.79
28428;BME280;15662;49.128;8.520;2022-08-21T09:42:26;100429.19;;;28.29;35.65
28428;BME280;15662;49.128;8.520;2022-08-21T09:45:12;100415.69;;;28.38;35.60
28428;BME280;15662;49.128;8.520;2022-08-21T09:47:43;100423.38;;;28.42;35.12
28428;BME280;15662;49.128;8.520;2022-08-21T09:50:26;100417.88;;;28.52;34.91
28428;BME280;15662;49.128;8.520;2022-08-21T09:53:00;100408.84;;;28.51;34.65
28428;BME280;15662;49.128;8.520;2022-08-21T09:55:51;100412.91;;;28.65;34.34
28428;BME280;15662;49.128;8.520;2022-08-21T09:58:43;100418.53;;;28.64;34.56
28428;BME280;15662;49.128;8.520;2022-08-21T10:01:42;100414.00;;;28.72;34.58
28428;BME280;15662;49.128;8.520;2022-08-21T10:04:13;100422.72;;;28.76;33.80
28428;BME280;15662;49.128;8.520;2022-08-21T10:06:42;100415.09;;;28.79;33.81
28428;BME280;15662;49.128;8.520;2022-08-21T10:09:18;100406.81;;;28.89;33.66
28428;BME280;15662;49.128;8.520;2022-08-21T10:12:21;100413.56;;;28.95;33.78
28428;BME280;15662;49.128;8.520;2022-08-21T10:15:08;100409.34;;;29.00;33.65
28428;BME280;15662;49.128;8.520;2022-08-21T10:18:12;100399.81;;;29.04;33.42
28428;BME280;15662;49.128;8.520;2022-08-21T10:24:13;100390.69;;;29.14;33.22
28428;BME280;15662;49.128;8.520;2022-08-21T10:27:32;100388.50;;;29.17;33.44
28428;BME280;15662;49.128;8.520;2022-08-21T10:30:50;100388.03;;;29.22;33.08
28428;BME280;15662;49.128;8.520;2022-08-21T10:33:50;100384.16;;;29.07;34.26
28428;BME280;15662;49.128;8.520;2022-08-21T10:36:34;100391.66;;;29.30;33.72
28428;BME280;15662;49.128;8.520;2022-08-21T10:39:39;100375.88;;;29.42;33.11
28428;BME280;15662;49.128;8.520;2022-08-21T10:48:08;100371.94;;;29.63;32.69
28428;BME280;15662;49.128;8.520;2022-08-21T10:50:54;100369.06;;;29.72;32.31
28428;BME280;15662;49.128;8.520;2022-08-21T10:53:45;100371.69;;;29.82;32.08
28428;BME280;15662;49.128;8.520;2022-08-21T10:56:38;100376.47;;;29.88;32.04
28428;BME280;15662;49.128;8.520;2022-08-21T10:59:47;100372.41;;;29.92;32.05
28428;BME280;15662;49.128;8.520;2022-08-21T11:05:46;100375.31;;;29.99;31.56
28428;BME280;15662;49.128;8.520;2022-08-21T11:08:40;100366.97;;;30.00;31.51
28428;BME280;15662;49.128;8.520;2022-08-21T11:11:27;100360.84;;;30.06;31.46
28428;BME280;15662;49.128;8.520;2022-08-21T11:17:40;100351.28;;;30.11;31.12
28428;BME280;15662;49.128;8.520;2022-08-21T11:20:44;100349.63;;;30.18;31.11
28428;BME280;15662;49.128;8.520;2022-08-21T11:23:23;100345.38;;;30.23;31.45
28428;BME280;15662;49.128;8.520;2022-08-21T11:26:02;100345.56;;;30.30;31.12
28428;BME280;15662;49.128;8.520;2022-08-21T11:28:50;100342.47;;;30.33;30.64
28428;BME280;15662;49.128;8.520;2022-08-21T11:44:22;100335.47;;;30.39;30.07
28428;BME280;15662;49.128;8.520;2022-08-21T11:50:16;100332.94;;;30.45;30.04
28428;BME280;15662;49.128;8.520;2022-08-21T11:55:49;100326.44;;;30.46;29.91
28428;BME280;15662;49.128;8.520;2022-08-21T11:58:45;100331.91;;;30.46;29.99
28428;BME280;15662;49.128;8.520;2022-08-21T12:01:24;100323.72;;;30.46;29.64
28428;BME280;15662;49.128;8.520;2022-08-21T12:04:08;100323.38;;;30.49;29.63
28428;BME280;15662;49.128;8.520;2022-08-21T12:06:41;100314.47;;;30.47;29.46
28428;BME280;15662;49.128;8.520;2022-08-21T12:09:34;100314.66;;;30.54;29.14
28428;BME280;15662;49.128;8.520;2022-08-21T12:12:36;100303.69;;;30.54;29.08
28428;BME280;15662;49.128;8.520;2022-08-21T12:15:24;100316.19;;;30.56;28.84
28428;BME280;15662;49.128;8.520;2022-08-21T12:18:20;100306.78;;;30.59;28.60
28428;BME280;15662;49.128;8.520;2022-08-21T12:29:35;100295.00;;;30.67;28.31
28428;BME280;15662;49.128;8.520;2022-08-21T12:34:51;100290.94;;;30.71;28.04
28428;BME280;15662;49.128;8.520;2022-08-21T12:38:02;100295.66;;;30.69;28.30
28428;BME280;15662;49.128;8.520;2022-08-21T12:40:56;100295.03;;;30.75;27.69
28428;BME280;15662;49.128;8.520;2022-08-21T12:45:56;100286.78;;;30.67;28.07
28428;BME280;15662;49.128;8.520;2022-08-21T12:49:00;100283.91;;;30.76;27.59
28428;BME280;15662;49.128;8.520;2022-08-21T12:51:46;100277.78;;;30.74;27.55
28428;BME280;15662;49.128;8.520;2022-08-21T12:54:31;100284.06;;;30.83;27.25
28428;BME280;15662;49.128;8.520;2022-08-21T12:57:06;100286.81;;;30.83;27.52
28428;BME280;15662;49.128;8.520;2022-08-21T12:59:39;100277.22;;;30.87;27.05
28428;BME280;15662;49.128;8.520;2022-08-21T13:02:35;100285.63;;;30.94;27.22
28428;BME280;15662;49.128;8.520;2022-08-21T13:05:11;100275.53;;;30.94;26.95
28428;BME280;15662;49.128;8.520;2022-08-21T13:07:47;100272.94;;;30.93;27.06
28428;BME280;15662;49.128;8.520;2022-08-21T13:10:23;100274.13;;;30.98;26.60
28428;BME280;15662;49.128;8.520;2022-08-21T13:13:04;100274.63;;;31.02;26.54
28428;BME280;15662;49.128;8.520;2022-08-21T13:15:41;100274.81;;;31.00;26.42
28428;BME280;15662;49.128;8.520;2022-08-21T13:18:25;100274.44;;;31.03;26.24
28428;BME280;15662;49.128;8.520;2022-08-21T13:21:11;100272.06;;;31.00;25.89
28428;BME280;15662;49.128;8.520;2022-08-21T13:23:40;100273.78;;;31.01;26.28
28428;BME280;15662;49.128;8.520;2022-08-21T13:26:21;100260.75;;;31.03;25.97
28428;BME280;15662;49.128;8.520;2022-08-21T13:28:50;100258.38;;;31.08;25.84
28428;BME280;15662;49.128;8.520;2022-08-21T13:31:26;100254.09;;;31.14;25.45
28428;BME280;15662;49.128;8.520;2022-08-21T13:33:59;100266.75;;;31.15;25.32
28428;BME280;15662;49.128;8.520;2022-08-21T13:36:39;100252.34;;;31.13;25.30
28428;BME280;15662;49.128;8.520;2022-08-21T13:39:12;100257.81;;;31.21;25.16
28428;BME280;15662;49.128;8.520;2022-08-21T13:41:48;100254.56;;;31.26;25.21
28428;BME280;15662;49.128;8.520;2022-08-21T13:45:03;100252.50;;;31.28;25.00
28428;BME280;15662;49.128;8.520;2022-08-21T13:47:16;100248.06;;;31.27;25.18
28428;BME280;15662;49.128;8.520;2022-08-21T13:49:48;100245.66;;;31.32;25.02
28428;BME280;15662;49.128;8.520;2022-08-21T13:52:25;100245.13;;;31.37;24.90
28428;BME280;15662;49.128;8.520;2022-08-21T13:55:11;100243.75;;;31.41;24.66
28428;BME280;15662;49.128;8.520;2022-08-21T13:57:41;100242.91;;;31.40;24.58
28428;BME280;15662;49.128;8.520;2022-08-21T14:00:30;100238.78;;;31.44;24.48
28428;BME280;15662;49.128;8.520;2022-08-21T14:03:11;100239.63;;;31.45;24.29
28428;BME280;15662;49.128;8.520;2022-08-21T14:05:51;100235.34;;;31.42;24.34
28428;BME280;15662;49.128;8.520;2022-08-21T14:08:30;100236.34;;;31.49;24.41
28428;BME280;15662;49.128;8.520;2022-08-21T14:11:02;100234.47;;;31.50;24.55
28428;BME280;15662;49.128;8.520;2022-08-21T14:13:45;100233.94;;;31.54;24.38
28428;BME280;15662;49.128;8.520;2022-08-21T14:16:21;100228.25;;;31.56;24.33
28428;BME280;15662;49.128;8.520;2022-08-21T14:21:42;100212.34;;;31.59;23.76
28428;BME280;15662;49.128;8.520;2022-08-21T14:24:31;100223.91;;;31.70;23.59
28428;BME280;15662;49.128;8.520;2022-08-21T14:27:07;100225.81;;;31.69;23.56
28428;BME280;15662;49.128;8.520;2022-08-21T14:29:40;100220.53;;;31.68;23.43
28428;BME280;15662;49.128;8.520;2022-08-21T14:32:22;100211.91;;;31.71;23.42
28428;BME280;15662;49.128;8.520;2022-08-21T14:34:53;100216.34;;;31.72;23.55
28428;BME280;15662;49.128;8.520;2022-08-21T14:37:27;100206.09;;;31.74;23.73
28428;BME280;15662;49.128;8.520;2022-08-21T14:39:57;100202.97;;;31.77;24.05